X-preSS Vesuvio — 9HA3961 — position and weather

sailwx.info

Track history (hours):
 
Tides and Currents Weather Stations Pressure Air Temp Water Temp Dewpoint Dewpoint Depression Visibility Wind Speed Wind Dir Waves Ship Positions

X-preSS Vesuvio

Last reported at 2018-Jun-17 11:21 UTC. Time now 2018-Jun-18 00:12 UTC.
Position N 41°15' W 008°49'.

Length 134 m; draft 6.6 m.

Type: Ship. MMSI: 256601000.

Date/timePositionNaut miles runAvg speedWind from/ knotsBaromVisibWave heightAir tempDewpointWater temp
2018-Jun-17 11:21N 41°15' W 008°49'410.8
2018-Jun-17 11:00N 41°11' W 008°47'3 6.8
2018-Jun-17 10:30N 41°11' W 008°42'1 2.2
2018-Jun-17 09:58N 41°12' W 008°41'0 0.0
2018-Jun-17 09:31N 41°12' W 008°41'0 0.0
2018-Jun-17 09:00N 41°12' W 008°41'0 0.0
2018-Jun-17 08:30N 41°12' W 008°41'0 0.0
2018-Jun-17 08:00N 41°12' W 008°41'0 0.0
2018-Jun-17 07:26N 41°12' W 008°41'0 0.0
2018-Jun-17 06:59N 41°12' W 008°41'0 0.0
2018-Jun-17 06:29N 41°12' W 008°41'0 0.0
2018-Jun-17 05:59N 41°12' W 008°41'0 0.0
2018-Jun-17 05:29N 41°12' W 008°41'0 0.0
2018-Jun-17 04:58N 41°12' W 008°41'0 0.0
2018-Jun-17 04:28N 41°12' W 008°41'0 0.0
2018-Jun-17 03:58N 41°12' W 008°41'0 0.0
2018-Jun-17 03:28N 41°12' W 008°41'0 0.0
2018-Jun-17 02:58N 41°12' W 008°41'0 0.0
2018-Jun-17 02:30N 41°12' W 008°41'0 0.0
2018-Jun-17 02:00N 41°12' W 008°41'0 0.0
2018-Jun-17 01:30N 41°12' W 008°41'0 0.0
2018-Jun-17 01:00N 41°12' W 008°41'0 0.0
2018-Jun-17 00:30N 41°12' W 008°41'0 0.4
2018-Jun-17 00:00N 41°11' W 008°41'3 5.4
2018-Jun-16 23:30N 41°09' W 008°43'4 1.8
2018-Jun-16 21:34N 41°07' W 008°47'0 0.0
2018-Jun-16 13:25N 41°07' W 008°47'5711.6
2018-Jun-16 08:28N 40°14' W 009°17'912.1
2018-Jun-16 07:43N 40°06' W 009°22'2611.6
2018-Jun-16 05:27N 39°42' W 009°36'611.6
2018-Jun-16 04:57N 39°37' W 009°40'611.4
2018-Jun-16 04:27N 39°32' W 009°43'511.2
2018-Jun-16 04:00N 39°27' W 009°44'611.2
2018-Jun-16 03:30N 39°22' W 009°44'510.8
2018-Jun-16 03:00N 39°16' W 009°45'611.9
2018-Jun-16 02:30N 39°10' W 009°44'612.0
2018-Jun-16 02:00N 39°04' W 009°43'612.2
2018-Jun-16 01:30N 38°58' W 009°43'612.2
2018-Jun-16 01:01N 38°52' W 009°42'612.1
2018-Jun-16 00:30N 38°46' W 009°42'611.8
2018-Jun-16 00:00N 38°40' W 009°41'510.3
2018-Jun-15 23:30N 38°38' W 009°35'612.6
2018-Jun-15 23:00N 38°37' W 009°27'612.3
2018-Jun-15 22:30N 38°39' W 009°20'611.6
2018-Jun-15 22:00N 38°41' W 009°13'2 3.4
2018-Jun-15 21:19N 38°42' W 009°10'0 0.0
2018-Jun-15 20:48N 38°42' W 009°10'0 0.0
2018-Jun-15 20:18N 38°42' W 009°10'0 0.0
2018-Jun-15 19:39N 38°42' W 009°10'0 0.0
2018-Jun-15 19:15N 38°42' W 009°10'0 0.0
2018-Jun-15 18:23N 38°42' W 009°10'0 0.0
2018-Jun-15 17:35N 38°42' W 009°10'0 0.0
2018-Jun-15 17:29N 38°42' W 009°10'0 0.0
2018-Jun-15 16:56N 38°42' W 009°10'0 0.0
2018-Jun-15 16:16N 38°42' W 009°10'0 0.0
2018-Jun-15 15:52N 38°42' W 009°10'0 0.0
2018-Jun-15 15:25N 38°42' W 009°10'0 0.0
2018-Jun-15 14:58N 38°42' W 009°10'0 0.0
2018-Jun-15 14:28N 38°42' W 009°10'0 0.0
2018-Jun-15 14:00N 38°42' W 009°10'0 0.0
2018-Jun-15 13:30N 38°42' W 009°10'0 0.0
2018-Jun-15 12:51N 38°42' W 009°10'0 0.0
2018-Jun-15 12:24N 38°42' W 009°10'0 0.0
2018-Jun-15 11:57N 38°42' W 009°10'0 0.0
2018-Jun-15 11:11N 38°42' W 009°10'0 0.0
2018-Jun-15 10:50N 38°42' W 009°10'0 0.0
2018-Jun-15 09:47N 38°42' W 009°10'0 0.0
2018-Jun-15 09:28N 38°42' W 009°10'0 0.0
2018-Jun-15 08:58N 38°42' W 009°10'0 0.0
2018-Jun-15 08:25N 38°42' W 009°10'0 0.0
2018-Jun-15 07:58N 38°42' W 009°10'0 0.0
2018-Jun-15 07:09N 38°42' W 009°10'0 0.0
2018-Jun-15 07:00N 38°42' W 009°10'0 0.0
2018-Jun-15 06:24N 38°42' W 009°10'0 0.0
2018-Jun-15 05:57N 38°42' W 009°10'0 0.0
2018-Jun-15 05:30N 38°42' W 009°10'0 0.0
2018-Jun-15 04:41N 38°42' W 009°10'0 0.0
2018-Jun-15 04:29N 38°42' W 009°10'0 0.0
2018-Jun-15 03:59N 38°42' W 009°10'0 0.0
2018-Jun-15 03:29N 38°42' W 009°10'0 0.0
2018-Jun-15 02:53N 38°42' W 009°10'0 0.0
2018-Jun-15 02:07N 38°42' W 009°10'0 0.0
2018-Jun-15 01:43N 38°42' W 009°10'0 0.0
2018-Jun-15 01:07N 38°42' W 009°10'0 0.0
2018-Jun-15 00:58N 38°42' W 009°10'0 0.0
2018-Jun-15 00:28N 38°42' W 009°10'0 0.0
2018-Jun-14 23:54N 38°42' W 009°10'0 0.0
2018-Jun-14 23:30N 38°42' W 009°10'0 0.0
2018-Jun-14 23:00N 38°42' W 009°10'0 0.0
2018-Jun-14 22:18N 38°42' W 009°10'0 0.0
2018-Jun-14 22:00N 38°42' W 009°10'0 0.0
2018-Jun-14 20:44N 38°42' W 009°10'0 0.0
2018-Jun-14 20:26N 38°42' W 009°10'0 0.0
2018-Jun-14 19:59N 38°42' W 009°10'0 0.0
2018-Jun-14 19:28N 38°42' W 009°10'0 0.0
2018-Jun-14 18:58N 38°42' W 009°10'0 0.0
2018-Jun-14 18:25N 38°42' W 009°10'0 0.0
2018-Jun-14 17:55N 38°42' W 009°10'0 0.0
2018-Jun-14 17:21N 38°42' W 009°10'0 0.0
2018-Jun-14 17:00N 38°42' W 009°10'0 0.0
2018-Jun-14 16:30N 38°42' W 009°10'0 0.0
2018-Jun-14 16:00N 38°42' W 009°10'0 0.0
2018-Jun-14 15:27N 38°42' W 009°10'0 0.0
2018-Jun-14 14:59N 38°42' W 009°10'0 0.0
2018-Jun-14 14:23N 38°42' W 009°10'0 0.0
2018-Jun-14 13:59N 38°42' W 009°10'0 0.0
2018-Jun-14 13:30N 38°42' W 009°10'0 0.8
2018-Jun-14 13:00N 38°42' W 009°10'510.8
2018-Jun-14 12:31N 38°41' W 009°17'611.4
2018-Jun-14 12:00N 38°37' W 009°22'4 7.7
2018-Jun-14 11:30N 38°33' W 009°24'3 5.4
2018-Jun-14 11:00N 38°31' W 009°23'2 3.4
2018-Jun-14 10:30N 38°29' W 009°23'2 3.5
2018-Jun-14 10:00N 38°27' W 009°23'2 3.3
2018-Jun-14 09:30N 38°26' W 009°24'2 3.7
2018-Jun-14 09:00N 38°24' W 009°24'4 8.6
2018-Jun-14 08:30N 38°19' W 009°23'611.2
2018-Jun-14 08:00N 38°14' W 009°23'510.8
2018-Jun-14 07:30N 38°08' W 009°23'510.8
2018-Jun-14 07:00N 38°03' W 009°23'511.0
2018-Jun-14 06:30N 37°58' W 009°22'510.9
2018-Jun-14 06:00N 37°52' W 009°22'611.1
2018-Jun-14 05:30N 37°47' W 009°22'611.0
2018-Jun-14 05:00N 37°41' W 009°22'611.1
2018-Jun-14 04:30N 37°36' W 009°22'611.1
2018-Jun-14 03:59N 37°30' W 009°22'611.0
2018-Jun-14 03:26N 37°24' W 009°22'510.8
2018-Jun-14 03:00N 37°19' W 009°22'1610.6
2018-Jun-14 01:31N 37°03' W 009°22'010.5
2018-Jun-14 01:30N 37°03' W 009°22'510.3
2018-Jun-14 01:00N 36°58' W 009°21'510.5
2018-Jun-14 00:30N 36°53' W 009°19'510.2
2018-Jun-14 00:00N 36°49' W 009°16'510.1
2018-Jun-13 23:30N 36°46' W 009°10'510.7
2018-Jun-13 23:00N 36°43' W 009°05'510.6
2018-Jun-13 22:30N 36°42' W 008°58'510.6
2018-Jun-13 22:00N 36°40' W 008°52'510.1
2018-Jun-13 21:30N 36°39' W 008°46'510.3
2018-Jun-13 21:00N 36°37' W 008°40'510.6
2018-Jun-13 20:30N 36°36' W 008°34'510.6
2018-Jun-13 20:00N 36°34' W 008°27'510.7
2018-Jun-13 19:30N 36°32' W 008°21'510.6
2018-Jun-13 19:00N 36°31' W 008°15'510.8
2018-Jun-13 18:30N 36°29' W 008°08'611.0
2018-Jun-13 17:56N 36°26' W 008°01'511.0
2018-Jun-13 17:30N 36°24' W 007°56'611.0
2018-Jun-13 16:59N 36°22' W 007°49'11210.9
2018-Jun-13 06:42N 35°57' W 005°34'2 9.7
2018-Jun-13 06:30N 35°57' W 005°32'  
2018-Jun-08 22:12N 35°56' W 005°52'211.2
2018-Jun-08 22:00N 35°56' W 005°49'610.9
2018-Jun-08 21:28N 35°57' W 005°42'510.9
2018-Jun-08 21:00N 35°58' W 005°36'510.6
2018-Jun-08 20:30N 35°60' W 005°30'5 9.3
2018-Jun-08 20:00N 36°02' W 005°25'6 0.8
2018-Jun-08 12:41N 36°08' W 005°25'0 2.0
2018-Jun-08 12:29N 36°08' W 005°25'0 0.0
2018-Jun-08 11:49N 36°08' W 005°25'0 0.0
2018-Jun-08 11:28N 36°08' W 005°25'0 0.0
2018-Jun-08 10:58N 36°08' W 005°25'0 0.0
2018-Jun-08 10:28N 36°08' W 005°25'0 0.0
2018-Jun-08 10:01N 36°08' W 005°25'0 0.0
2018-Jun-08 09:30N 36°08' W 005°25'0 0.0
2018-Jun-08 09:00N 36°08' W 005°25'0 0.0
2018-Jun-08 08:30N 36°08' W 005°25'0 0.0
2018-Jun-08 05:59N 36°08' W 005°25'0 0.0
2018-Jun-08 05:29N 36°08' W 005°25'0 0.0
2018-Jun-08 04:58N 36°08' W 005°25'0 0.0
2018-Jun-08 04:28N 36°08' W 005°25'0 0.0
2018-Jun-08 03:58N 36°08' W 005°25'0 0.0
2018-Jun-08 03:28N 36°08' W 005°25'0 0.0
2018-Jun-08 03:00N 36°08' W 005°25'0 0.0
2018-Jun-08 02:30N 36°08' W 005°25'0 0.0
2018-Jun-08 01:57N 36°08' W 005°25'0 0.0
2018-Jun-08 01:30N 36°08' W 005°25'0 0.0
2018-Jun-08 01:00N 36°08' W 005°25'0 0.0
2018-Jun-08 00:29N 36°08' W 005°25'0 0.0
2018-Jun-07 23:59N 36°08' W 005°25'0 0.0
2018-Jun-07 23:29N 36°08' W 005°25'0 0.0
2018-Jun-07 23:00N 36°08' W 005°25'2 3.9
2018-Jun-07 22:30N 36°09' W 005°25'0 0.1
2018-Jun-07 20:02N 36°10' W 005°25'0 1.0
2018-Jun-07 19:59N 36°10' W 005°25'2 5.1
2018-Jun-07 19:30N 36°08' W 005°24'4 8.7
2018-Jun-07 19:00N 36°04' W 005°21'1 2.2
2018-Jun-07 18:30N 36°03' W 005°20'0 0.1
2018-Jun-07 18:00N 36°03' W 005°20'0 0.5
2018-Jun-07 17:30N 36°03' W 005°21'0 0.3
2018-Jun-07 17:00N 36°03' W 005°21'0 0.2
2018-Jun-07 16:30N 36°03' W 005°21'0 0.4
2018-Jun-07 16:00N 36°03' W 005°21'1 1.8
2018-Jun-07 15:30N 36°04' W 005°20'1 3.0
2018-Jun-07 15:00N 36°03' W 005°19'510.5
2018-Jun-07 14:30N 36°04' W 005°12'  
Track history (hours):
 
Tides and Currents Weather Stations Pressure Air Temp Water Temp Dewpoint Dewpoint Depression Visibility Wind Speed Wind Dir Waves Ship Positions

X-preSS Vesuvio

Last reported at 2018-Jun-17 11:21 UTC. Time now 2018-Jun-18 00:12 UTC.
Position N 41°15' W 008°49'.

Length 134 m; draft 6.6 m.

Type: Ship. MMSI: 256601000.

Date/timePositionNaut miles runAvg speedWind from/ knotsBaromVisibWave heightAir tempDewpointWater temp
2018-Jun-17 11:21N 41°15' W 008°49'410.8
2018-Jun-17 11:00N 41°11' W 008°47'3 6.8
2018-Jun-17 10:30N 41°11' W 008°42'1 2.2
2018-Jun-17 09:58N 41°12' W 008°41'0 0.0
2018-Jun-17 09:31N 41°12' W 008°41'0 0.0
2018-Jun-17 09:00N 41°12' W 008°41'0 0.0
2018-Jun-17 08:30N 41°12' W 008°41'0 0.0
2018-Jun-17 08:00N 41°12' W 008°41'0 0.0
2018-Jun-17 07:26N 41°12' W 008°41'0 0.0
2018-Jun-17 06:59N 41°12' W 008°41'0 0.0
2018-Jun-17 06:29N 41°12' W 008°41'0 0.0
2018-Jun-17 05:59N 41°12' W 008°41'0 0.0
2018-Jun-17 05:29N 41°12' W 008°41'0 0.0
2018-Jun-17 04:58N 41°12' W 008°41'0 0.0
2018-Jun-17 04:28N 41°12' W 008°41'0 0.0
2018-Jun-17 03:58N 41°12' W 008°41'0 0.0
2018-Jun-17 03:28N 41°12' W 008°41'0 0.0
2018-Jun-17 02:58N 41°12' W 008°41'0 0.0
2018-Jun-17 02:30N 41°12' W 008°41'0 0.0
2018-Jun-17 02:00N 41°12' W 008°41'0 0.0
2018-Jun-17 01:30N 41°12' W 008°41'0 0.0
2018-Jun-17 01:00N 41°12' W 008°41'0 0.0
2018-Jun-17 00:30N 41°12' W 008°41'0 0.4
2018-Jun-17 00:00N 41°11' W 008°41'3 5.4
2018-Jun-16 23:30N 41°09' W 008°43'4 1.8
2018-Jun-16 21:34N 41°07' W 008°47'0 0.0
2018-Jun-16 13:25N 41°07' W 008°47'5711.6
2018-Jun-16 08:28N 40°14' W 009°17'912.1
2018-Jun-16 07:43N 40°06' W 009°22'2611.6
2018-Jun-16 05:27N 39°42' W 009°36'611.6
2018-Jun-16 04:57N 39°37' W 009°40'611.4
2018-Jun-16 04:27N 39°32' W 009°43'511.2
2018-Jun-16 04:00N 39°27' W 009°44'611.2
2018-Jun-16 03:30N 39°22' W 009°44'510.8
2018-Jun-16 03:00N 39°16' W 009°45'611.9
2018-Jun-16 02:30N 39°10' W 009°44'612.0
2018-Jun-16 02:00N 39°04' W 009°43'612.2
2018-Jun-16 01:30N 38°58' W 009°43'612.2
2018-Jun-16 01:01N 38°52' W 009°42'612.1
2018-Jun-16 00:30N 38°46' W 009°42'611.8
2018-Jun-16 00:00N 38°40' W 009°41'510.3
2018-Jun-15 23:30N 38°38' W 009°35'612.6
2018-Jun-15 23:00N 38°37' W 009°27'612.3
2018-Jun-15 22:30N 38°39' W 009°20'611.6
2018-Jun-15 22:00N 38°41' W 009°13'2 3.4
2018-Jun-15 21:19N 38°42' W 009°10'0 0.0
2018-Jun-15 20:48N 38°42' W 009°10'0 0.0
2018-Jun-15 20:18N 38°42' W 009°10'0 0.0
2018-Jun-15 19:39N 38°42' W 009°10'0 0.0
2018-Jun-15 19:15N 38°42' W 009°10'0 0.0
2018-Jun-15 18:23N 38°42' W 009°10'0 0.0
2018-Jun-15 17:35N 38°42' W 009°10'0 0.0
2018-Jun-15 17:29N 38°42' W 009°10'0 0.0
2018-Jun-15 16:56N 38°42' W 009°10'0 0.0
2018-Jun-15 16:16N 38°42' W 009°10'0 0.0
2018-Jun-15 15:52N 38°42' W 009°10'0 0.0
2018-Jun-15 15:25N 38°42' W 009°10'0 0.0
2018-Jun-15 14:58N 38°42' W 009°10'0 0.0
2018-Jun-15 14:28N 38°42' W 009°10'0 0.0
2018-Jun-15 14:00N 38°42' W 009°10'0 0.0
2018-Jun-15 13:30N 38°42' W 009°10'0 0.0
2018-Jun-15 12:51N 38°42' W 009°10'0 0.0
2018-Jun-15 12:24N 38°42' W 009°10'0 0.0
2018-Jun-15 11:57N 38°42' W 009°10'0 0.0
2018-Jun-15 11:11N 38°42' W 009°10'0 0.0
2018-Jun-15 10:50N 38°42' W 009°10'0 0.0
2018-Jun-15 09:47N 38°42' W 009°10'0 0.0
2018-Jun-15 09:28N 38°42' W 009°10'0 0.0
2018-Jun-15 08:58N 38°42' W 009°10'0 0.0
2018-Jun-15 08:25N 38°42' W 009°10'0 0.0
2018-Jun-15 07:58N 38°42' W 009°10'0 0.0
2018-Jun-15 07:09N 38°42' W 009°10'0 0.0
2018-Jun-15 07:00N 38°42' W 009°10'0 0.0
2018-Jun-15 06:24N 38°42' W 009°10'0 0.0
2018-Jun-15 05:57N 38°42' W 009°10'0 0.0
2018-Jun-15 05:30N 38°42' W 009°10'0 0.0
2018-Jun-15 04:41N 38°42' W 009°10'0 0.0
2018-Jun-15 04:29N 38°42' W 009°10'0 0.0
2018-Jun-15 03:59N 38°42' W 009°10'0 0.0
2018-Jun-15 03:29N 38°42' W 009°10'0 0.0
2018-Jun-15 02:53N 38°42' W 009°10'0 0.0
2018-Jun-15 02:07N 38°42' W 009°10'0 0.0
2018-Jun-15 01:43N 38°42' W 009°10'0 0.0
2018-Jun-15 01:07N 38°42' W 009°10'0 0.0
2018-Jun-15 00:58N 38°42' W 009°10'0 0.0
2018-Jun-15 00:28N 38°42' W 009°10'0 0.0
2018-Jun-14 23:54N 38°42' W 009°10'0 0.0
2018-Jun-14 23:30N 38°42' W 009°10'0 0.0
2018-Jun-14 23:00N 38°42' W 009°10'0 0.0
2018-Jun-14 22:18N 38°42' W 009°10'0 0.0
2018-Jun-14 22:00N 38°42' W 009°10'0 0.0
2018-Jun-14 20:44N 38°42' W 009°10'0 0.0
2018-Jun-14 20:26N 38°42' W 009°10'0 0.0
2018-Jun-14 19:59N 38°42' W 009°10'0 0.0
2018-Jun-14 19:28N 38°42' W 009°10'0 0.0
2018-Jun-14 18:58N 38°42' W 009°10'0 0.0
2018-Jun-14 18:25N 38°42' W 009°10'0 0.0
2018-Jun-14 17:55N 38°42' W 009°10'0 0.0
2018-Jun-14 17:21N 38°42' W 009°10'0 0.0
2018-Jun-14 17:00N 38°42' W 009°10'0 0.0
2018-Jun-14 16:30N 38°42' W 009°10'0 0.0
2018-Jun-14 16:00N 38°42' W 009°10'0 0.0
2018-Jun-14 15:27N 38°42' W 009°10'0 0.0
2018-Jun-14 14:59N 38°42' W 009°10'0 0.0
2018-Jun-14 14:23N 38°42' W 009°10'0 0.0
2018-Jun-14 13:59N 38°42' W 009°10'0 0.0
2018-Jun-14 13:30N 38°42' W 009°10'0 0.8
2018-Jun-14 13:00N 38°42' W 009°10'510.8
2018-Jun-14 12:31N 38°41' W 009°17'611.4
2018-Jun-14 12:00N 38°37' W 009°22'4 7.7
2018-Jun-14 11:30N 38°33' W 009°24'3 5.4
2018-Jun-14 11:00N 38°31' W 009°23'2 3.4
2018-Jun-14 10:30N 38°29' W 009°23'2 3.5
2018-Jun-14 10:00N 38°27' W 009°23'2 3.3
2018-Jun-14 09:30N 38°26' W 009°24'2 3.7
2018-Jun-14 09:00N 38°24' W 009°24'4 8.6
2018-Jun-14 08:30N 38°19' W 009°23'611.2
2018-Jun-14 08:00N 38°14' W 009°23'510.8
2018-Jun-14 07:30N 38°08' W 009°23'510.8
2018-Jun-14 07:00N 38°03' W 009°23'511.0
2018-Jun-14 06:30N 37°58' W 009°22'510.9
2018-Jun-14 06:00N 37°52' W 009°22'611.1
2018-Jun-14 05:30N 37°47' W 009°22'611.0
2018-Jun-14 05:00N 37°41' W 009°22'611.1
2018-Jun-14 04:30N 37°36' W 009°22'611.1
2018-Jun-14 03:59N 37°30' W 009°22'611.0
2018-Jun-14 03:26N 37°24' W 009°22'510.8
2018-Jun-14 03:00N 37°19' W 009°22'1610.6
2018-Jun-14 01:31N 37°03' W 009°22'010.5
2018-Jun-14 01:30N 37°03' W 009°22'510.3
2018-Jun-14 01:00N 36°58' W 009°21'510.5
2018-Jun-14 00:30N 36°53' W 009°19'510.2
2018-Jun-14 00:00N 36°49' W 009°16'510.1
2018-Jun-13 23:30N 36°46' W 009°10'510.7
2018-Jun-13 23:00N 36°43' W 009°05'510.6
2018-Jun-13 22:30N 36°42' W 008°58'510.6
2018-Jun-13 22:00N 36°40' W 008°52'510.1
2018-Jun-13 21:30N 36°39' W 008°46'510.3
2018-Jun-13 21:00N 36°37' W 008°40'510.6
2018-Jun-13 20:30N 36°36' W 008°34'510.6
2018-Jun-13 20:00N 36°34' W 008°27'510.7
2018-Jun-13 19:30N 36°32' W 008°21'510.6
2018-Jun-13 19:00N 36°31' W 008°15'510.8
2018-Jun-13 18:30N 36°29' W 008°08'611.0
2018-Jun-13 17:56N 36°26' W 008°01'511.0
2018-Jun-13 17:30N 36°24' W 007°56'611.0
2018-Jun-13 16:59N 36°22' W 007°49'11210.9
2018-Jun-13 06:42N 35°57' W 005°34'2 9.7
2018-Jun-13 06:30N 35°57' W 005°32'  
2018-Jun-08 22:12N 35°56' W 005°52'211.2
2018-Jun-08 22:00N 35°56' W 005°49'610.9
2018-Jun-08 21:28N 35°57' W 005°42'510.9
2018-Jun-08 21:00N 35°58' W 005°36'510.6
2018-Jun-08 20:30N 35°60' W 005°30'5 9.3
2018-Jun-08 20:00N 36°02' W 005°25'6 0.8
2018-Jun-08 12:41N 36°08' W 005°25'0 2.0
2018-Jun-08 12:29N 36°08' W 005°25'0 0.0
2018-Jun-08 11:49N 36°08' W 005°25'0 0.0
2018-Jun-08 11:28N 36°08' W 005°25'0 0.0
2018-Jun-08 10:58N 36°08' W 005°25'0 0.0
2018-Jun-08 10:28N 36°08' W 005°25'0 0.0
2018-Jun-08 10:01N 36°08' W 005°25'0 0.0
2018-Jun-08 09:30N 36°08' W 005°25'0 0.0
2018-Jun-08 09:00N 36°08' W 005°25'0 0.0
2018-Jun-08 08:30N 36°08' W 005°25'0 0.0
2018-Jun-08 05:59N 36°08' W 005°25'0 0.0
2018-Jun-08 05:29N 36°08' W 005°25'0 0.0
2018-Jun-08 04:58N 36°08' W 005°25'0 0.0
2018-Jun-08 04:28N 36°08' W 005°25'0 0.0
2018-Jun-08 03:58N 36°08' W 005°25'0 0.0
2018-Jun-08 03:28N 36°08' W 005°25'0 0.0
2018-Jun-08 03:00N 36°08' W 005°25'0 0.0
2018-Jun-08 02:30N 36°08' W 005°25'0 0.0
2018-Jun-08 01:57N 36°08' W 005°25'0 0.0
2018-Jun-08 01:30N 36°08' W 005°25'0 0.0
2018-Jun-08 01:00N 36°08' W 005°25'0 0.0
2018-Jun-08 00:29N 36°08' W 005°25'0 0.0
2018-Jun-07 23:59N 36°08' W 005°25'0 0.0
2018-Jun-07 23:29N 36°08' W 005°25'0 0.0
2018-Jun-07 23:00N 36°08' W 005°25'2 3.9
2018-Jun-07 22:30N 36°09' W 005°25'0 0.1
2018-Jun-07 20:02N 36°10' W 005°25'0 1.0
2018-Jun-07 19:59N 36°10' W 005°25'2 5.1
2018-Jun-07 19:30N 36°08' W 005°24'4 8.7
2018-Jun-07 19:00N 36°04' W 005°21'1 2.2
2018-Jun-07 18:30N 36°03' W 005°20'0 0.1
2018-Jun-07 18:00N 36°03' W 005°20'0 0.5
2018-Jun-07 17:30N 36°03' W 005°21'0 0.3
2018-Jun-07 17:00N 36°03' W 005°21'0 0.2
2018-Jun-07 16:30N 36°03' W 005°21'0 0.4
2018-Jun-07 16:00N 36°03' W 005°21'1 1.8
2018-Jun-07 15:30N 36°04' W 005°20'1 3.0
2018-Jun-07 15:00N 36°03' W 005°19'510.5
2018-Jun-07 14:30N 36°04' W 005°12'  

Dump ship's entire track history